sensor_id;sensor_type;location;lat;lon;timestamp;P1;durP1;ratioP1;P2;durP2;ratioP2
26822;SDS011;14852;51.910;8.878;2023-04-16T00:02:21;26.33;;;21.70;;
26822;SDS011;14852;51.910;8.878;2023-04-16T00:04:48;24.85;;;20.33;;
26822;SDS011;14852;51.910;8.878;2023-04-16T00:07:13;27.88;;;21.33;;
26822;SDS011;14852;51.910;8.878;2023-04-16T00:09:39;27.73;;;22.65;;
26822;SDS011;14852;51.910;8.878;2023-04-16T00:12:05;23.83;;;19.80;;
26822;SDS011;14852;51.910;8.878;2023-04-16T00:14:31;28.50;;;22.50;;
26822;SDS011;14852;51.910;8.878;2023-04-16T00:16:57;26.30;;;21.38;;
26822;SDS011;14852;51.910;8.878;2023-04-16T00:19:23;27.25;;;21.83;;
26822;SDS011;14852;51.910;8.878;2023-04-16T00:21:48;31.67;;;21.50;;
26822;SDS011;14852;51.910;8.878;2023-04-16T00:24:14;24.83;;;20.80;;
26822;SDS011;14852;51.910;8.878;2023-04-16T00:26:40;24.83;;;21.75;;
26822;SDS011;14852;51.910;8.878;2023-04-16T00:29:08;23.77;;;20.83;;
26822;SDS011;14852;51.910;8.878;2023-04-16T00:31:35;29.13;;;20.50;;
26822;SDS011;14852;51.910;8.878;2023-04-16T00:34:01;24.48;;;20.15;;
26822;SDS011;14852;51.910;8.878;2023-04-16T00:36:27;25.13;;;20.23;;
26822;SDS011;14852;51.910;8.878;2023-04-16T00:38:54;28.42;;;23.45;;
26822;SDS011;14852;51.910;8.878;2023-04-16T00:41:21;25.25;;;21.13;;
26822;SDS011;14852;51.910;8.878;2023-04-16T00:43:47;24.15;;;20.33;;
26822;SDS011;14852;51.910;8.878;2023-04-16T00:46:14;30.17;;;22.63;;
26822;SDS011;14852;51.910;8.878;2023-04-16T00:48:41;25.10;;;20.05;;
26822;SDS011;14852;51.910;8.878;2023-04-16T00:51:08;26.10;;;20.83;;
26822;SDS011;14852;51.910;8.878;2023-04-16T00:53:35;30.17;;;22.70;;
26822;SDS011;14852;51.910;8.878;2023-04-16T00:56:03;25.20;;;21.23;;
26822;SDS011;14852;51.910;8.878;2023-04-16T00:58:32;26.52;;;22.05;;
26822;SDS011;14852;51.910;8.878;2023-04-16T01:00:59;25.50;;;21.02;;
26822;SDS011;14852;51.910;8.878;2023-04-16T01:03:29;28.63;;;20.65;;
26822;SDS011;14852;51.910;8.878;2023-04-16T01:06:13;28.30;;;20.95;;
26822;SDS011;14852;51.910;8.878;2023-04-16T01:08:40;23.60;;;21.00;;
26822;SDS011;14852;51.910;8.878;2023-04-16T01:11:06;24.23;;;20.25;;
26822;SDS011;14852;51.910;8.878;2023-04-16T01:13:32;23.95;;;21.40;;
26822;SDS011;14852;51.910;8.878;2023-04-16T01:16:03;23.98;;;20.42;;
26822;SDS011;14852;51.910;8.878;2023-04-16T01:18:33;23.15;;;20.10;;
26822;SDS011;14852;51.910;8.878;2023-04-16T01:21:00;31.48;;;22.55;;
26822;SDS011;14852;51.910;8.878;2023-04-16T01:23:26;26.50;;;21.25;;
26822;SDS011;14852;51.910;8.878;2023-04-16T01:25:52;46.95;;;22.95;;
26822;SDS011;14852;51.910;8.878;2023-04-16T01:28:18;23.85;;;20.30;;
26822;SDS011;14852;51.910;8.878;2023-04-16T01:30:44;27.65;;;20.70;;
26822;SDS011;14852;51.910;8.878;2023-04-16T01:33:28;26.15;;;21.00;;
26822;SDS011;14852;51.910;8.878;2023-04-16T01:35:54;24.30;;;21.10;;
26822;SDS011;14852;51.910;8.878;2023-04-16T01:38:20;24.27;;;20.98;;
26822;SDS011;14852;51.910;8.878;2023-04-16T01:40:46;23.50;;;20.40;;
26822;SDS011;14852;51.910;8.878;2023-04-16T01:43:12;23.98;;;20.80;;
26822;SDS011;14852;51.910;8.878;2023-04-16T01:45:37;27.52;;;22.23;;
26822;SDS011;14852;51.910;8.878;2023-04-16T01:48:03;24.17;;;20.30;;
26822;SDS011;14852;51.910;8.878;2023-04-16T01:50:29;27.83;;;21.58;;
26822;SDS011;14852;51.910;8.878;2023-04-16T01:52:55;27.92;;;22.95;;
26822;SDS011;14852;51.910;8.878;2023-04-16T01:55:21;26.02;;;22.95;;
26822;SDS011;14852;51.910;8.878;2023-04-16T01:57:47;25.90;;;21.75;;
26822;SDS011;14852;51.910;8.878;2023-04-16T02:00:14;27.23;;;22.15;;
26822;SDS011;14852;51.910;8.878;2023-04-16T02:02:45;26.75;;;21.65;;
26822;SDS011;14852;51.910;8.878;2023-04-16T02:05:19;23.95;;;20.58;;
26822;SDS011;14852;51.910;8.878;2023-04-16T02:07:45;24.40;;;21.10;;
26822;SDS011;14852;51.910;8.878;2023-04-16T02:10:10;25.10;;;20.75;;
26822;SDS011;14852;51.910;8.878;2023-04-16T02:12:38;26.13;;;21.98;;
26822;SDS011;14852;51.910;8.878;2023-04-16T02:15:04;25.17;;;22.42;;
26822;SDS011;14852;51.910;8.878;2023-04-16T02:17:30;26.15;;;22.10;;
26822;SDS011;14852;51.910;8.878;2023-04-16T02:20:06;24.92;;;20.58;;
26822;SDS011;14852;51.910;8.878;2023-04-16T02:22:37;25.85;;;22.10;;
26822;SDS011;14852;51.910;8.878;2023-04-16T02:25:03;25.98;;;21.33;;
26822;SDS011;14852;51.910;8.878;2023-04-16T02:27:29;24.95;;;21.52;;
26822;SDS011;14852;51.910;8.878;2023-04-16T02:30:04;31.98;;;22.23;;
26822;SDS011;14852;51.910;8.878;2023-04-16T02:32:32;25.08;;;20.77;;
26822;SDS011;14852;51.910;8.878;2023-04-16T02:34:59;26.58;;;22.50;;
26822;SDS011;14852;51.910;8.878;2023-04-16T02:37:27;27.63;;;21.88;;
26822;SDS011;14852;51.910;8.878;2023-04-16T02:39:53;23.35;;;20.20;;
26822;SDS011;14852;51.910;8.878;2023-04-16T02:42:19;26.70;;;22.58;;
26822;SDS011;14852;51.910;8.878;2023-04-16T02:44:45;28.20;;;20.55;;
26822;SDS011;14852;51.910;8.878;2023-04-16T02:47:11;26.10;;;21.20;;
26822;SDS011;14852;51.910;8.878;2023-04-16T02:49:36;24.25;;;20.95;;
26822;SDS011;14852;51.910;8.878;2023-04-16T02:52:02;23.70;;;20.90;;
26822;SDS011;14852;51.910;8.878;2023-04-16T02:54:28;24.45;;;21.48;;
26822;SDS011;14852;51.910;8.878;2023-04-16T02:56:54;26.65;;;22.90;;
26822;SDS011;14852;51.910;8.878;2023-04-16T02:59:19;25.58;;;19.73;;
26822;SDS011;14852;51.910;8.878;2023-04-16T03:01:45;25.52;;;21.58;;
26822;SDS011;14852;51.910;8.878;2023-04-16T03:04:11;24.42;;;21.17;;
26822;SDS011;14852;51.910;8.878;2023-04-16T03:06:37;25.65;;;20.48;;
26822;SDS011;14852;51.910;8.878;2023-04-16T03:09:02;22.88;;;20.58;;
26822;SDS011;14852;51.910;8.878;2023-04-16T03:11:28;19.45;;;17.25;;
26822;SDS011;14852;51.910;8.878;2023-04-16T03:13:54;22.73;;;20.33;;
26822;SDS011;14852;51.910;8.878;2023-04-16T03:16:20;21.45;;;18.05;;
26822;SDS011;14852;51.910;8.878;2023-04-16T03:18:46;26.05;;;21.05;;
26822;SDS011;14852;51.910;8.878;2023-04-16T03:21:12;26.20;;;21.33;;
26822;SDS011;14852;51.910;8.878;2023-04-16T03:23:37;24.80;;;20.83;;
26822;SDS011;14852;51.910;8.878;2023-04-16T03:26:03;25.23;;;19.88;;
26822;SDS011;14852;51.910;8.878;2023-04-16T03:28:30;28.77;;;21.77;;
26822;SDS011;14852;51.910;8.878;2023-04-16T03:30:56;23.77;;;18.77;;
26822;SDS011;14852;51.910;8.878;2023-04-16T03:33:22;24.83;;;20.88;;
26822;SDS011;14852;51.910;8.878;2023-04-16T03:35:58;25.88;;;21.45;;
26822;SDS011;14852;51.910;8.878;2023-04-16T03:38:27;26.40;;;20.77;;
26822;SDS011;14852;51.910;8.878;2023-04-16T03:40:55;25.33;;;20.10;;
26822;SDS011;14852;51.910;8.878;2023-04-16T03:43:21;22.63;;;19.77;;
26822;SDS011;14852;51.910;8.878;2023-04-16T03:45:47;20.13;;;17.92;;
26822;SDS011;14852;51.910;8.878;2023-04-16T03:48:12;24.55;;;21.27;;
26822;SDS011;14852;51.910;8.878;2023-04-16T03:50:43;24.05;;;20.30;;
26822;SDS011;14852;51.910;8.878;2023-04-16T03:53:12;21.77;;;18.33;;
26822;SDS011;14852;51.910;8.878;2023-04-16T03:55:39;25.75;;;19.17;;
26822;SDS011;14852;51.910;8.878;2023-04-16T03:58:07;22.00;;;18.27;;
26822;SDS011;14852;51.910;8.878;2023-04-16T04:00:33;22.08;;;19.00;;
26822;SDS011;14852;51.910;8.878;2023-04-16T04:03:05;22.50;;;18.83;;
26822;SDS011;14852;51.910;8.878;2023-04-16T04:05:35;19.75;;;16.70;;
26822;SDS011;14852;51.910;8.878;2023-04-16T04:08:03;22.98;;;16.70;;
26822;SDS011;14852;51.910;8.878;2023-04-16T04:10:31;21.27;;;17.85;;
26822;SDS011;14852;51.910;8.878;2023-04-16T04:12:58;22.33;;;17.90;;
26822;SDS011;14852;51.910;8.878;2023-04-16T04:15:24;21.55;;;18.70;;
26822;SDS011;14852;51.910;8.878;2023-04-16T04:17:51;21.20;;;17.25;;
26822;SDS011;14852;51.910;8.878;2023-04-16T04:20:17;25.23;;;18.63;;
26822;SDS011;14852;51.910;8.878;2023-04-16T04:22:45;20.20;;;17.17;;
26822;SDS011;14852;51.910;8.878;2023-04-16T04:25:11;22.23;;;17.50;;
26822;SDS011;14852;51.910;8.878;2023-04-16T04:27:36;20.10;;;17.85;;
26822;SDS011;14852;51.910;8.878;2023-04-16T04:30:02;20.20;;;17.65;;
26822;SDS011;14852;51.910;8.878;2023-04-16T04:32:30;20.60;;;16.35;;
26822;SDS011;14852;51.910;8.878;2023-04-16T04:34:56;21.00;;;18.65;;
26822;SDS011;14852;51.910;8.878;2023-04-16T04:37:25;22.33;;;19.35;;
26822;SDS011;14852;51.910;8.878;2023-04-16T04:39:51;20.05;;;17.30;;
26822;SDS011;14852;51.910;8.878;2023-04-16T04:42:17;22.38;;;19.85;;
26822;SDS011;14852;51.910;8.878;2023-04-16T04:44:44;24.20;;;19.17;;
26822;SDS011;14852;51.910;8.878;2023-04-16T04:47:10;20.38;;;17.73;;
26822;SDS011;14852;51.910;8.878;2023-04-16T04:49:36;21.70;;;17.42;;
26822;SDS011;14852;51.910;8.878;2023-04-16T04:52:02;22.42;;;17.33;;
26822;SDS011;14852;51.910;8.878;2023-04-16T04:54:30;21.08;;;18.17;;
26822;SDS011;14852;51.910;8.878;2023-04-16T04:56:56;22.15;;;17.90;;
26822;SDS011;14852;51.910;8.878;2023-04-16T04:59:23;22.80;;;17.95;;
26822;SDS011;14852;51.910;8.878;2023-04-16T05:01:49;20.02;;;16.67;;
26822;SDS011;14852;51.910;8.878;2023-04-16T05:04:15;20.30;;;16.65;;
26822;SDS011;14852;51.910;8.878;2023-04-16T05:06:42;21.48;;;17.40;;
26822;SDS011;14852;51.910;8.878;2023-04-16T05:11:36;20.55;;;16.38;;
26822;SDS011;14852;51.910;8.878;2023-04-16T05:14:03;19.55;;;16.90;;
26822;SDS011;14852;51.910;8.878;2023-04-16T05:16:30;20.88;;;17.38;;
26822;SDS011;14852;51.910;8.878;2023-04-16T05:18:55;26.55;;;19.95;;
26822;SDS011;14852;51.910;8.878;2023-04-16T05:21:22;24.33;;;20.63;;
26822;SDS011;14852;51.910;8.878;2023-04-16T05:23:48;20.95;;;17.75;;
26822;SDS011;14852;51.910;8.878;2023-04-16T05:26:14;23.45;;;20.08;;
26822;SDS011;14852;51.910;8.878;2023-04-16T05:28:40;26.40;;;20.00;;
26822;SDS011;14852;51.910;8.878;2023-04-16T05:31:05;23.92;;;19.23;;
26822;SDS011;14852;51.910;8.878;2023-04-16T05:33:31;20.70;;;17.85;;
26822;SDS011;14852;51.910;8.878;2023-04-16T05:35:57;19.60;;;16.95;;
26822;SDS011;14852;51.910;8.878;2023-04-16T05:38:23;20.77;;;17.90;;
26822;SDS011;14852;51.910;8.878;2023-04-16T05:40:48;21.85;;;18.80;;
26822;SDS011;14852;51.910;8.878;2023-04-16T05:43:14;23.30;;;18.83;;
26822;SDS011;14852;51.910;8.878;2023-04-16T05:45:41;20.95;;;17.23;;
26822;SDS011;14852;51.910;8.878;2023-04-16T05:48:07;20.40;;;17.63;;
26822;SDS011;14852;51.910;8.878;2023-04-16T05:50:33;21.45;;;16.58;;
26822;SDS011;14852;51.910;8.878;2023-04-16T05:53:00;24.15;;;18.70;;
26822;SDS011;14852;51.910;8.878;2023-04-16T05:55:29;19.48;;;16.77;;
26822;SDS011;14852;51.910;8.878;2023-04-16T05:57:55;20.88;;;17.40;;
26822;SDS011;14852;51.910;8.878;2023-04-16T06:00:21;20.38;;;16.67;;
26822;SDS011;14852;51.910;8.878;2023-04-16T06:02:47;26.67;;;20.15;;
26822;SDS011;14852;51.910;8.878;2023-04-16T06:05:12;23.92;;;19.35;;
26822;SDS011;14852;51.910;8.878;2023-04-16T06:07:38;22.83;;;17.25;;
26822;SDS011;14852;51.910;8.878;2023-04-16T06:10:04;20.25;;;17.65;;
26822;SDS011;14852;51.910;8.878;2023-04-16T06:12:30;22.80;;;17.50;;
26822;SDS011;14852;51.910;8.878;2023-04-16T06:14:56;22.42;;;17.15;;
26822;SDS011;14852;51.910;8.878;2023-04-16T06:17:22;20.88;;;16.63;;
26822;SDS011;14852;51.910;8.878;2023-04-16T06:19:48;23.45;;;17.83;;
26822;SDS011;14852;51.910;8.878;2023-04-16T06:22:14;25.15;;;19.73;;
26822;SDS011;14852;51.910;8.878;2023-04-16T06:24:40;26.38;;;18.42;;
26822;SDS011;14852;51.910;8.878;2023-04-16T06:27:06;24.65;;;18.80;;
26822;SDS011;14852;51.910;8.878;2023-04-16T06:29:31;26.20;;;19.58;;
26822;SDS011;14852;51.910;8.878;2023-04-16T06:31:57;34.65;;;19.50;;
26822;SDS011;14852;51.910;8.878;2023-04-16T06:34:23;22.30;;;17.23;;
26822;SDS011;14852;51.910;8.878;2023-04-16T06:36:49;22.67;;;17.73;;
26822;SDS011;14852;51.910;8.878;2023-04-16T06:39:15;26.10;;;20.05;;
26822;SDS011;14852;51.910;8.878;2023-04-16T06:41:41;22.52;;;18.75;;
26822;SDS011;14852;51.910;8.878;2023-04-16T06:44:07;21.73;;;18.00;;
26822;SDS011;14852;51.910;8.878;2023-04-16T06:46:32;26.20;;;19.42;;
26822;SDS011;14852;51.910;8.878;2023-04-16T06:48:58;23.67;;;18.40;;
26822;SDS011;14852;51.910;8.878;2023-04-16T06:51:24;22.60;;;18.98;;
26822;SDS011;14852;51.910;8.878;2023-04-16T06:53:50;21.77;;;16.77;;
26822;SDS011;14852;51.910;8.878;2023-04-16T06:56:16;20.55;;;16.50;;
26822;SDS011;14852;51.910;8.878;2023-04-16T06:58:42;21.98;;;18.88;;
26822;SDS011;14852;51.910;8.878;2023-04-16T07:01:07;20.13;;;16.73;;
26822;SDS011;14852;51.910;8.878;2023-04-16T07:03:34;22.83;;;16.70;;
26822;SDS011;14852;51.910;8.878;2023-04-16T07:06:00;24.55;;;17.45;;
26822;SDS011;14852;51.910;8.878;2023-04-16T07:08:26;19.92;;;16.83;;
26822;SDS011;14852;51.910;8.878;2023-04-16T07:10:52;25.38;;;16.75;;
26822;SDS011;14852;51.910;8.878;2023-04-16T07:13:18;25.25;;;19.23;;
26822;SDS011;14852;51.910;8.878;2023-04-16T07:15:45;22.77;;;16.90;;
26822;SDS011;14852;51.910;8.878;2023-04-16T07:18:11;19.58;;;16.50;;
26822;SDS011;14852;51.910;8.878;2023-04-16T07:20:37;19.85;;;16.05;;
26822;SDS011;14852;51.910;8.878;2023-04-16T07:23:03;20.73;;;17.35;;
26822;SDS011;14852;51.910;8.878;2023-04-16T07:25:29;23.20;;;18.33;;
26822;SDS011;14852;51.910;8.878;2023-04-16T07:27:54;22.00;;;17.23;;
26822;SDS011;14852;51.910;8.878;2023-04-16T07:30:20;19.27;;;14.88;;
26822;SDS011;14852;51.910;8.878;2023-04-16T07:32:46;17.55;;;15.57;;
26822;SDS011;14852;51.910;8.878;2023-04-16T07:35:12;20.70;;;17.02;;
26822;SDS011;14852;51.910;8.878;2023-04-16T07:37:37;20.25;;;16.50;;
26822;SDS011;14852;51.910;8.878;2023-04-16T07:40:03;18.50;;;16.38;;
26822;SDS011;14852;51.910;8.878;2023-04-16T07:42:30;21.70;;;16.48;;
26822;SDS011;14852;51.910;8.878;2023-04-16T07:44:55;19.23;;;15.38;;
26822;SDS011;14852;51.910;8.878;2023-04-16T07:47:21;18.52;;;15.52;;
26822;SDS011;14852;51.910;8.878;2023-04-16T07:49:47;20.30;;;14.98;;
26822;SDS011;14852;51.910;8.878;2023-04-16T07:52:14;21.00;;;15.82;;
26822;SDS011;14852;51.910;8.878;2023-04-16T07:54:40;20.80;;;14.70;;
26822;SDS011;14852;51.910;8.878;2023-04-16T07:57:06;19.38;;;15.95;;
26822;SDS011;14852;51.910;8.878;2023-04-16T07:59:31;18.60;;;14.65;;
26822;SDS011;14852;51.910;8.878;2023-04-16T08:01:57;17.17;;;14.77;;
26822;SDS011;14852;51.910;8.878;2023-04-16T08:04:23;17.92;;;14.43;;
26822;SDS011;14852;51.910;8.878;2023-04-16T08:06:49;18.20;;;15.30;;
26822;SDS011;14852;51.910;8.878;2023-04-16T08:09:16;18.63;;;15.00;;
26822;SDS011;14852;51.910;8.878;2023-04-16T08:11:43;18.42;;;14.73;;
26822;SDS011;14852;51.910;8.878;2023-04-16T08:14:09;21.10;;;16.30;;
26822;SDS011;14852;51.910;8.878;2023-04-16T08:16:35;16.58;;;14.10;;
26822;SDS011;14852;51.910;8.878;2023-04-16T08:19:00;21.08;;;16.05;;
26822;SDS011;14852;51.910;8.878;2023-04-16T08:21:26;22.33;;;16.13;;
26822;SDS011;14852;51.910;8.878;2023-04-16T08:23:53;17.70;;;15.23;;
26822;SDS011;14852;51.910;8.878;2023-04-16T08:26:19;20.95;;;15.38;;
26822;SDS011;14852;51.910;8.878;2023-04-16T08:28:44;20.50;;;16.20;;
26822;SDS011;14852;51.910;8.878;2023-04-16T08:31:10;19.27;;;16.00;;
26822;SDS011;14852;51.910;8.878;2023-04-16T08:33:36;23.23;;;17.08;;
26822;SDS011;14852;51.910;8.878;2023-04-16T08:36:02;21.90;;;15.63;;
26822;SDS011;14852;51.910;8.878;2023-04-16T08:38:28;19.63;;;15.18;;
26822;SDS011;14852;51.910;8.878;2023-04-16T08:40:53;17.80;;;15.80;;
26822;SDS011;14852;51.910;8.878;2023-04-16T08:43:22;20.02;;;15.95;;
26822;SDS011;14852;51.910;8.878;2023-04-16T08:45:48;21.77;;;16.63;;
26822;SDS011;14852;51.910;8.878;2023-04-16T08:48:17;22.92;;;16.90;;
26822;SDS011;14852;51.910;8.878;2023-04-16T08:50:46;20.10;;;17.00;;
26822;SDS011;14852;51.910;8.878;2023-04-16T08:53:17;17.10;;;14.88;;
26822;SDS011;14852;51.910;8.878;2023-04-16T08:55:47;19.63;;;16.38;;
26822;SDS011;14852;51.910;8.878;2023-04-16T09:00:46;21.10;;;16.70;;
26822;SDS011;14852;51.910;8.878;2023-04-16T09:03:13;20.27;;;16.95;;
26822;SDS011;14852;51.910;8.878;2023-04-16T09:05:39;22.73;;;17.77;;
26822;SDS011;14852;51.910;8.878;2023-04-16T09:08:07;20.70;;;16.30;;
26822;SDS011;14852;51.910;8.878;2023-04-16T09:10:33;21.05;;;17.05;;
26822;SDS011;14852;51.910;8.878;2023-04-16T09:12:59;21.27;;;17.42;;
26822;SDS011;14852;51.910;8.878;2023-04-16T09:15:25;20.65;;;17.20;;
26822;SDS011;14852;51.910;8.878;2023-04-16T09:17:51;20.77;;;18.05;;
26822;SDS011;14852;51.910;8.878;2023-04-16T09:20:17;19.27;;;16.08;;
26822;SDS011;14852;51.910;8.878;2023-04-16T09:22:44;18.65;;;16.42;;
26822;SDS011;14852;51.910;8.878;2023-04-16T09:25:11;18.13;;;14.88;;
26822;SDS011;14852;51.910;8.878;2023-04-16T09:27:37;23.77;;;18.90;;
26822;SDS011;14852;51.910;8.878;2023-04-16T09:30:22;23.05;;;18.90;;
26822;SDS011;14852;51.910;8.878;2023-04-16T09:32:50;19.63;;;16.85;;
26822;SDS011;14852;51.910;8.878;2023-04-16T09:35:43;18.98;;;16.48;;
26822;SDS011;14852;51.910;8.878;2023-04-16T09:38:18;19.80;;;17.38;;
26822;SDS011;14852;51.910;8.878;2023-04-16T09:40:44;23.23;;;17.60;;
26822;SDS011;14852;51.910;8.878;2023-04-16T09:43:17;19.73;;;16.67;;
26822;SDS011;14852;51.910;8.878;2023-04-16T09:45:49;18.60;;;16.45;;
26822;SDS011;14852;51.910;8.878;2023-04-16T09:48:38;21.05;;;16.70;;
26822;SDS011;14852;51.910;8.878;2023-04-16T09:51:04;21.33;;;18.48;;
26822;SDS011;14852;51.910;8.878;2023-04-16T09:53:31;21.50;;;18.02;;
26822;SDS011;14852;51.910;8.878;2023-04-16T09:55:57;21.88;;;18.13;;
26822;SDS011;14852;51.910;8.878;2023-04-16T09:58:25;23.30;;;15.38;;
26822;SDS011;14852;51.910;8.878;2023-04-16T10:01:02;20.45;;;16.50;;
26822;SDS011;14852;51.910;8.878;2023-04-16T10:03:36;23.02;;;17.05;;
26822;SDS011;14852;51.910;8.878;2023-04-16T10:06:13;20.45;;;16.27;;
26822;SDS011;14852;51.910;8.878;2023-04-16T10:08:47;22.23;;;17.23;;
26822;SDS011;14852;51.910;8.878;2023-04-16T10:11:14;19.33;;;14.93;;
26822;SDS011;14852;51.910;8.878;2023-04-16T10:13:41;18.20;;;15.85;;
26822;SDS011;14852;51.910;8.878;2023-04-16T10:16:07;19.15;;;16.50;;
26822;SDS011;14852;51.910;8.878;2023-04-16T10:18:37;22.25;;;17.55;;
26822;SDS011;14852;51.910;8.878;2023-04-16T10:21:05;21.45;;;16.70;;
26822;SDS011;14852;51.910;8.878;2023-04-16T10:23:32;19.50;;;16.73;;
26822;SDS011;14852;51.910;8.878;2023-04-16T10:25:59;20.30;;;17.00;;
26822;SDS011;14852;51.910;8.878;2023-04-16T10:28:25;17.08;;;15.27;;
26822;SDS011;14852;51.910;8.878;2023-04-16T10:30:53;16.50;;;14.63;;
26822;SDS011;14852;51.910;8.878;2023-04-16T10:33:25;20.17;;;16.27;;
26822;SDS011;14852;51.910;8.878;2023-04-16T10:36:10;16.73;;;15.02;;
26822;SDS011;14852;51.910;8.878;2023-04-16T10:38:48;16.48;;;13.25;;
26822;SDS011;14852;51.910;8.878;2023-04-16T10:41:16;15.85;;;14.18;;
26822;SDS011;14852;51.910;8.878;2023-04-16T10:43:45;17.02;;;14.35;;
26822;SDS011;14852;51.910;8.878;2023-04-16T10:51:51;18.45;;;15.23;;
26822;SDS011;14852;51.910;8.878;2023-04-16T10:54:20;17.88;;;13.65;;
26822;SDS011;14852;51.910;8.878;2023-04-16T10:56:50;15.05;;;13.15;;
26822;SDS011;14852;51.910;8.878;2023-04-16T10:59:17;16.63;;;13.70;;
26822;SDS011;14852;51.910;8.878;2023-04-16T11:01:51;16.05;;;13.27;;
26822;SDS011;14852;51.910;8.878;2023-04-16T11:07:01;16.17;;;14.48;;
26822;SDS011;14852;51.910;8.878;2023-04-16T11:12:19;15.25;;;13.15;;
26822;SDS011;14852;51.910;8.878;2023-04-16T11:15:13;16.27;;;12.93;;
26822;SDS011;14852;51.910;8.878;2023-04-16T11:17:42;15.32;;;11.95;;
26822;SDS011;14852;51.910;8.878;2023-04-16T11:20:09;16.90;;;15.15;;
26822;SDS011;14852;51.910;8.878;2023-04-16T11:22:55;17.52;;;14.02;;
26822;SDS011;14852;51.910;8.878;2023-04-16T11:25:23;16.40;;;13.05;;
26822;SDS011;14852;51.910;8.878;2023-04-16T11:27:54;19.77;;;16.30;;
26822;SDS011;14852;51.910;8.878;2023-04-16T11:30:29;19.00;;;14.93;;
26822;SDS011;14852;51.910;8.878;2023-04-16T11:32:57;17.58;;;15.32;;
26822;SDS011;14852;51.910;8.878;2023-04-16T11:35:26;19.63;;;15.30;;
26822;SDS011;14852;51.910;8.878;2023-04-16T11:37:55;17.63;;;14.75;;
26822;SDS011;14852;51.910;8.878;2023-04-16T11:40:22;20.42;;;17.10;;
26822;SDS011;14852;51.910;8.878;2023-04-16T11:42:48;22.45;;;16.05;;
26822;SDS011;14852;51.910;8.878;2023-04-16T11:45:14;19.60;;;15.75;;
26822;SDS011;14852;51.910;8.878;2023-04-16T11:47:43;20.58;;;15.98;;
26822;SDS011;14852;51.910;8.878;2023-04-16T11:52:50;19.80;;;16.40;;
26822;SDS011;14852;51.910;8.878;2023-04-16T11:55:18;20.45;;;16.25;;
26822;SDS011;14852;51.910;8.878;2023-04-16T11:57:44;21.92;;;16.25;;
26822;SDS011;14852;51.910;8.878;2023-04-16T12:00:10;22.65;;;15.82;;
26822;SDS011;14852;51.910;8.878;2023-04-16T12:10:34;19.35;;;15.27;;
26822;SDS011;14852;51.910;8.878;2023-04-16T12:13:15;16.55;;;14.13;;
26822;SDS011;14852;51.910;8.878;2023-04-16T12:15:45;19.10;;;15.00;;
26822;SDS011;14852;51.910;8.878;2023-04-16T12:18:20;20.60;;;15.65;;
26822;SDS011;14852;51.910;8.878;2023-04-16T12:20:48;19.38;;;13.52;;
26822;SDS011;14852;51.910;8.878;2023-04-16T12:23:24;20.92;;;16.00;;
26822;SDS011;14852;51.910;8.878;2023-04-16T12:25:55;21.10;;;16.23;;
26822;SDS011;14852;51.910;8.878;2023-04-16T12:28:33;18.63;;;13.70;;
26822;SDS011;14852;51.910;8.878;2023-04-16T12:31:02;19.92;;;15.35;;
26822;SDS011;14852;51.910;8.878;2023-04-16T12:33:29;24.13;;;17.63;;
26822;SDS011;14852;51.910;8.878;2023-04-16T12:35:56;22.27;;;16.05;;
26822;SDS011;14852;51.910;8.878;2023-04-16T12:38:21;17.98;;;14.43;;
26822;SDS011;14852;51.910;8.878;2023-04-16T12:40:47;19.40;;;14.38;;
26822;SDS011;14852;51.910;8.878;2023-04-16T12:43:13;19.75;;;15.10;;
26822;SDS011;14852;51.910;8.878;2023-04-16T12:45:39;21.60;;;16.58;;
26822;SDS011;14852;51.910;8.878;2023-04-16T12:48:05;24.17;;;16.05;;
26822;SDS011;14852;51.910;8.878;2023-04-16T12:50:32;18.83;;;14.88;;
26822;SDS011;14852;51.910;8.878;2023-04-16T12:52:58;16.52;;;13.35;;
26822;SDS011;14852;51.910;8.878;2023-04-16T12:55:24;18.38;;;14.75;;
26822;SDS011;14852;51.910;8.878;2023-04-16T12:57:50;19.58;;;15.73;;
26822;SDS011;14852;51.910;8.878;2023-04-16T13:00:19;17.27;;;13.30;;
26822;SDS011;14852;51.910;8.878;2023-04-16T13:02:45;20.27;;;14.02;;
26822;SDS011;14852;51.910;8.878;2023-04-16T13:05:11;19.85;;;15.00;;
26822;SDS011;14852;51.910;8.878;2023-04-16T13:07:40;19.50;;;13.98;;
26822;SDS011;14852;51.910;8.878;2023-04-16T13:10:06;18.08;;;13.32;;
26822;SDS011;14852;51.910;8.878;2023-04-16T13:12:33;22.38;;;14.40;;
26822;SDS011;14852;51.910;8.878;2023-04-16T13:14:59;19.23;;;13.55;;
26822;SDS011;14852;51.910;8.878;2023-04-16T13:17:24;18.30;;;13.90;;
26822;SDS011;14852;51.910;8.878;2023-04-16T13:19:50;18.38;;;14.38;;
26822;SDS011;14852;51.910;8.878;2023-04-16T13:22:16;23.77;;;14.60;;
26822;SDS011;14852;51.910;8.878;2023-04-16T13:24:42;18.25;;;13.20;;
26822;SDS011;14852;51.910;8.878;2023-04-16T13:27:07;18.95;;;14.45;;
26822;SDS011;14852;51.910;8.878;2023-04-16T13:29:33;17.73;;;14.63;;
26822;SDS011;14852;51.910;8.878;2023-04-16T13:32:02;18.75;;;15.77;;
26822;SDS011;14852;51.910;8.878;2023-04-16T13:34:28;18.25;;;13.55;;
26822;SDS011;14852;51.910;8.878;2023-04-16T13:36:53;18.73;;;15.00;;
26822;SDS011;14852;51.910;8.878;2023-04-16T13:39:20;18.45;;;14.50;;
26822;SDS011;14852;51.910;8.878;2023-04-16T13:41:45;19.95;;;15.18;;
26822;SDS011;14852;51.910;8.878;2023-04-16T13:44:13;19.10;;;13.73;;
26822;SDS011;14852;51.910;8.878;2023-04-16T13:46:38;17.00;;;14.15;;
26822;SDS011;14852;51.910;8.878;2023-04-16T13:49:07;16.90;;;13.80;;
26822;SDS011;14852;51.910;8.878;2023-04-16T13:51:33;18.08;;;14.02;;
26822;SDS011;14852;51.910;8.878;2023-04-16T13:53:58;19.52;;;13.48;;
26822;SDS011;14852;51.910;8.878;2023-04-16T13:56:24;15.18;;;13.57;;
26822;SDS011;14852;51.910;8.878;2023-04-16T13:58:50;18.08;;;14.55;;
26822;SDS011;14852;51.910;8.878;2023-04-16T14:01:16;16.05;;;13.02;;
26822;SDS011;14852;51.910;8.878;2023-04-16T14:03:42;21.00;;;14.40;;
26822;SDS011;14852;51.910;8.878;2023-04-16T14:06:07;19.40;;;14.85;;
26822;SDS011;14852;51.910;8.878;2023-04-16T14:08:33;17.45;;;14.35;;
26822;SDS011;14852;51.910;8.878;2023-04-16T14:10:59;18.67;;;14.23;;
26822;SDS011;14852;51.910;8.878;2023-04-16T14:13:25;16.00;;;13.85;;
26822;SDS011;14852;51.910;8.878;2023-04-16T14:15:54;17.88;;;13.38;;
26822;SDS011;14852;51.910;8.878;2023-04-16T14:18:20;16.02;;;12.55;;
26822;SDS011;14852;51.910;8.878;2023-04-16T14:20:46;18.17;;;13.75;;
26822;SDS011;14852;51.910;8.878;2023-04-16T14:23:12;17.08;;;14.15;;
26822;SDS011;14852;51.910;8.878;2023-04-16T14:25:38;17.35;;;13.70;;
26822;SDS011;14852;51.910;8.878;2023-04-16T14:28:03;15.90;;;13.43;;
26822;SDS011;14852;51.910;8.878;2023-04-16T14:30:29;15.68;;;12.65;;
26822;SDS011;14852;51.910;8.878;2023-04-16T14:32:55;18.33;;;14.38;;
26822;SDS011;14852;51.910;8.878;2023-04-16T14:35:21;16.55;;;13.73;;
26822;SDS011;14852;51.910;8.878;2023-04-16T14:37:47;17.80;;;13.30;;
26822;SDS011;14852;51.910;8.878;2023-04-16T14:40:13;19.38;;;15.02;;
26822;SDS011;14852;51.910;8.878;2023-04-16T14:42:39;18.13;;;13.65;;
26822;SDS011;14852;51.910;8.878;2023-04-16T14:45:05;16.77;;;13.10;;
26822;SDS011;14852;51.910;8.878;2023-04-16T14:47:32;19.90;;;13.88;;
26822;SDS011;14852;51.910;8.878;2023-04-16T14:49:59;16.67;;;13.95;;